Time;durP1;ratioP1;P1;durP2;ratioP2;P2;SDS_P1;SDS_P2;PMS_P1;PMS_P2;Temp;Humidity;BMP_temperature;BMP_pressure;BME280_temperature;BME280_humidity;BME280_pressure;Samples;Min_cycle;Max_cycle;Signal;HPM_P1;HPM_P2
2023/08/29 00:00:21;;;;;;;4.22;2.08;;;16.30;99.90;;;;;;4999806;28;20130;-67
2023/08/29 00:02:48;;;;;;;1.83;1.67;;;16.30;99.90;;;;;;4999493;28;20037;-67
2023/08/29 00:05:14;;;;;;;10.88;2.03;;;16.30;99.90;;;;;;4999180;28;20139;-67
2023/08/29 00:07:39;;;;;;;4.13;1.83;;;16.30;99.90;;;;;;5000172;28;20062;-67
2023/08/29 00:10:05;;;;;;;5.00;2.10;;;16.30;99.90;;;;;;4999468;28;20018;-67
2023/08/29 00:12:34;;;;;;;3.30;1.83;;;16.40;99.90;;;;;;4999316;28;20026;-67
2023/08/29 00:15:00;;;;;;;5.90;1.98;;;16.40;99.90;;;;;;5000020;28;20033;-67
2023/08/29 00:17:26;;;;;;;3.80;2.20;;;16.40;99.90;;;;;;4999664;28;20026;-67
2023/08/29 00:19:53;;;;;;;6.57;2.10;;;16.40;99.90;;;;;;4999707;28;20080;-67
2023/08/29 00:22:19;;;;;;;5.88;2.20;;;16.40;99.90;;;;;;4998967;28;20029;-67
2023/08/29 00:24:44;;;;;;;7.32;2.30;;;16.40;99.90;;;;;;4999196;28;20034;-67
2023/08/29 00:27:13;;;;;;;3.83;2.05;;;16.30;99.90;;;;;;5000269;28;20026;-67
2023/08/29 00:29:39;;;;;;;4.25;1.60;;;16.40;99.90;;;;;;4999665;28;20101;-67
2023/08/29 00:32:05;;;;;;;3.55;1.90;;;16.40;99.90;;;;;;4999086;28;20101;-67
2023/08/29 00:34:30;;;;;;;3.08;1.80;;;16.30;99.90;;;;;;4999634;28;20030;-67
2023/08/29 00:36:56;;;;;;;5.35;1.77;;;16.40;99.90;;;;;;4998759;28;20018;-67
2023/08/29 00:39:21;;;;;;;6.53;2.00;;;16.40;99.90;;;;;;4998911;28;20077;-67
2023/08/29 00:41:49;;;;;;;2.20;2.00;;;16.40;99.90;;;;;;4998567;28;20090;-67
2023/08/29 00:44:15;;;;;;;6.57;2.20;;;16.40;99.90;;;;;;4999572;28;20058;-67
2023/08/29 00:46:41;;;;;;;5.47;1.95;;;16.40;99.90;;;;;;4998468;28;20042;-67
2023/08/29 00:49:08;;;;;;;3.95;1.75;;;16.40;99.90;;;;;;4998570;28;20026;-67
2023/08/29 00:51:33;;;;;;;6.45;2.03;;;16.40;99.90;;;;;;4998352;28;20034;-67
2023/08/29 00:54:00;;;;;;;2.83;2.03;;;16.40;99.90;;;;;;4998754;28;20034;-67
2023/08/29 00:56:26;;;;;;;7.63;1.98;;;16.40;99.90;;;;;;4999157;28;20053;-67
2023/08/29 00:58:52;;;;;;;2.05;1.73;;;16.40;99.90;;;;;;4998655;28;20033;-67
2023/08/29 01:01:18;;;;;;;3.15;2.08;;;16.40;99.90;;;;;;4999438;28;20032;-67
2023/08/29 01:03:44;;;;;;;6.60;2.03;;;16.30;99.90;;;;;;4998520;28;20026;-67
2023/08/29 01:06:11;;;;;;;4.78;2.20;;;16.20;99.90;;;;;;4999241;28;20103;-67
2023/08/29 01:08:37;;;;;;;2.10;1.90;;;15.90;99.90;;;;;;4998198;28;20045;-67
2023/08/29 01:11:26;;;;;;;4.40;1.80;;;15.80;99.90;;;;;;4997939;28;20026;-68
2023/08/29 01:14:30;;;;;;;3.13;1.67;;;15.90;99.90;;;;;;4997484;28;20090;-67
2023/08/29 01:17:20;;;;;;;2.72;1.73;;;15.90;99.90;;;;;;4999124;28;20109;-67
2023/08/29 01:19:50;;;;;;;2.22;1.70;;;16.00;99.90;;;;;;4998823;28;20159;-67
2023/08/29 01:22:30;;;;;;;3.72;1.90;;;16.00;99.90;;;;;;4997921;28;20019;-67
2023/08/29 01:25:23;;;;;;;3.38;1.80;;;16.00;99.90;;;;;;4997837;28;20094;-67
2023/08/29 01:27:49;;;;;;;4.50;2.00;;;16.10;99.90;;;;;;4998942;28;20022;-67
2023/08/29 01:30:15;;;;;;;3.13;2.10;;;16.20;99.90;;;;;;4997890;28;20029;-67
2023/08/29 01:32:41;;;;;;;2.92;1.60;;;16.20;99.90;;;;;;4997753;28;20037;-67
2023/08/29 01:35:09;;;;;;;3.30;1.75;;;16.20;99.90;;;;;;4997615;28;20026;-67
2023/08/29 01:37:34;;;;;;;2.28;1.90;;;16.20;99.90;;;;;;4997701;28;20026;-67
2023/08/29 01:40:00;;;;;;;3.67;2.25;;;16.20;99.90;;;;;;4998270;28;20033;-67
2023/08/29 01:42:25;;;;;;;3.15;1.80;;;16.20;99.90;;;;;;4997999;28;20026;-67
2023/08/29 01:44:51;;;;;;;2.55;1.90;;;16.20;99.90;;;;;;4998272;28;20041;-67
2023/08/29 01:47:16;;;;;;;8.27;1.95;;;16.20;99.90;;;;;;4997421;28;20026;-67
2023/08/29 01:49:42;;;;;;;2.85;2.08;;;16.10;99.90;;;;;;4997231;28;20037;-67
2023/08/29 01:52:08;;;;;;;5.60;2.33;;;16.00;99.90;;;;;;4997382;28;20030;-67
2023/08/29 01:54:34;;;;;;;4.05;1.88;;;16.00;99.90;;;;;;4997636;28;20029;-67
2023/08/29 01:57:01;;;;;;;2.38;1.80;;;16.00;99.90;;;;;;4998015;28;20026;-67
2023/08/29 01:59:28;;;;;;;3.80;2.00;;;16.10;99.90;;;;;;4997204;28;20037;-67
2023/08/29 02:01:54;;;;;;;3.25;1.88;;;16.10;99.90;;;;;;4997475;28;20026;-67
2023/08/29 02:04:19;;;;;;;1.60;1.50;;;16.10;99.90;;;;;;4996991;28;20076;-67
2023/08/29 02:06:45;;;;;;;3.67;2.28;;;16.10;99.90;;;;;;4997635;28;20026;-67
2023/08/29 02:09:10;;;;;;;4.03;2.22;;;16.10;99.90;;;;;;4997110;28;20027;-67
2023/08/29 02:11:36;;;;;;;4.20;2.30;;;16.10;99.90;;;;;;4996837;28;20029;-67
2023/08/29 02:14:01;;;;;;;5.20;2.10;;;16.10;99.90;;;;;;4997314;28;20180;-67
2023/08/29 02:16:27;;;;;;;9.43;2.60;;;16.10;99.90;;;;;;4997730;28;20089;-67
2023/08/29 02:18:53;;;;;;;4.68;2.88;;;16.10;99.90;;;;;;4997918;28;20037;-67
2023/08/29 02:21:19;;;;;;;6.43;2.42;;;16.10;99.90;;;;;;4997064;28;20117;-67
2023/08/29 02:23:44;;;;;;;3.97;2.70;;;16.00;99.90;;;;;;4996355;28;20121;-67
2023/08/29 02:26:10;;;;;;;8.73;2.58;;;16.00;99.90;;;;;;4996475;28;20023;-67
2023/08/29 02:28:38;;;;;;;5.85;2.70;;;16.10;99.90;;;;;;4997140;28;20029;-67
2023/08/29 02:31:05;;;;;;;4.88;2.50;;;16.10;99.90;;;;;;4997801;28;20026;-67
2023/08/29 02:33:30;;;;;;;3.25;2.47;;;16.00;99.90;;;;;;4997054;28;20029;-67
2023/08/29 02:35:57;;;;;;;6.63;2.40;;;15.90;99.90;;;;;;4996747;28;20019;-67
2023/08/29 02:38:22;;;;;;;4.55;2.47;;;15.80;99.90;;;;;;4997143;28;20032;-67
2023/08/29 02:40:48;;;;;;;6.50;2.40;;;15.80;99.90;;;;;;4996550;28;20114;-67
2023/08/29 02:43:13;;;;;;;4.22;2.63;;;15.80;99.90;;;;;;4997524;28;20037;-67
2023/08/29 02:45:39;;;;;;;4.75;2.22;;;15.80;99.90;;;;;;4996523;28;20037;-67
2023/08/29 02:48:05;;;;;;;6.63;2.55;;;15.80;99.90;;;;;;4996573;28;20050;-67
2023/08/29 02:50:31;;;;;;;4.75;2.20;;;15.80;99.90;;;;;;4996765;28;20038;-67
2023/08/29 02:52:57;;;;;;;7.63;2.50;;;15.80;99.90;;;;;;4997786;28;20033;-67
2023/08/29 02:55:22;;;;;;;8.23;2.38;;;15.70;99.90;;;;;;4996543;28;20022;-67
2023/08/29 02:57:48;;;;;;;6.95;3.08;;;15.70;99.90;;;;;;4997559;28;20033;-67
2023/08/29 03:00:14;;;;;;;3.30;2.45;;;15.70;99.90;;;;;;4997250;28;20033;-67
2023/08/29 03:02:40;;;;;;;5.45;2.63;;;15.70;99.90;;;;;;4997474;28;20026;-67
2023/08/29 03:05:05;;;;;;;5.28;2.92;;;15.70;99.90;;;;;;4996349;28;20032;-67
2023/08/29 03:07:31;;;;;;;5.40;2.60;;;15.70;99.90;;;;;;4996413;28;20053;-67
2023/08/29 03:09:57;;;;;;;5.13;3.08;;;15.80;99.90;;;;;;4997475;28;20054;-67
2023/08/29 03:12:22;;;;;;;6.00;2.88;;;15.90;99.90;;;;;;4997345;28;20033;-68
2023/08/29 03:14:53;;;;;;;5.75;2.72;;;15.90;99.90;;;;;;4997306;28;20022;-67
2023/08/29 03:17:19;;;;;;;4.32;2.78;;;15.90;99.90;;;;;;4996396;28;20118;-67
2023/08/29 03:19:46;;;;;;;7.93;3.10;;;15.90;99.90;;;;;;4996556;28;20064;-67
2023/08/29 03:22:12;;;;;;;5.25;3.20;;;15.80;99.90;;;;;;4996598;28;20030;-67
2023/08/29 03:24:37;;;;;;;6.43;3.30;;;15.80;99.90;;;;;;4996299;28;20042;-67
2023/08/29 03:27:03;;;;;;;12.43;3.22;;;15.80;99.90;;;;;;4996732;28;20029;-67
2023/08/29 03:29:29;;;;;;;4.57;3.00;;;15.70;99.90;;;;;;4997036;28;20027;-67
2023/08/29 03:31:54;;;;;;;5.95;2.88;;;15.70;99.90;;;;;;4996527;28;20069;-67
2023/08/29 03:34:20;;;;;;;4.45;2.90;;;15.50;99.90;;;;;;4996876;28;20117;-67
2023/08/29 03:36:45;;;;;;;5.53;2.75;;;15.50;99.90;;;;;;4998660;28;20033;-67
2023/08/29 03:39:11;;;;;;;8.02;2.95;;;15.40;99.90;;;;;;4999812;28;20030;-67
2023/08/29 03:41:38;;;;;;;3.85;2.60;;;15.30;99.90;;;;;;5000901;28;20089;-67
2023/08/29 03:44:04;;;;;;;7.80;2.85;;;15.30;99.90;;;;;;4999631;28;20030;-67
2023/08/29 03:46:29;;;;;;;3.80;2.70;;;15.20;99.90;;;;;;5000105;28;20024;-68
2023/08/29 03:48:55;;;;;;;3.63;2.58;;;15.30;99.90;;;;;;5000150;28;20093;-67
2023/08/29 03:51:20;;;;;;;6.07;2.45;;;15.40;99.90;;;;;;4999303;28;20034;-67
2023/08/29 03:53:46;;;;;;;4.68;2.80;;;15.30;99.90;;;;;;4999693;28;20065;-68
2023/08/29 03:56:12;;;;;;;4.88;2.67;;;15.20;99.90;;;;;;4999487;28;20026;-68
2023/08/29 03:58:37;;;;;;;4.00;2.78;;;15.20;99.90;;;;;;5000253;28;20019;-68
2023/08/29 04:01:03;;;;;;;2.20;2.00;;;15.30;99.90;;;;;;4999329;28;20038;-68
2023/08/29 04:03:29;;;;;;;5.50;2.30;;;15.40;99.90;;;;;;5000098;28;20022;-68
2023/08/29 04:05:55;;;;;;;5.55;2.35;;;15.40;99.90;;;;;;4999219;28;20026;-67
2023/08/29 04:08:20;;;;;;;3.67;2.33;;;15.50;99.90;;;;;;5000168;28;20042;-67
2023/08/29 04:10:46;;;;;;;4.03;2.47;;;15.50;99.90;;;;;;4999158;28;20031;-67
2023/08/29 04:13:12;;;;;;;2.75;2.30;;;15.60;99.90;;;;;;4999236;28;20028;-67
2023/08/29 04:15:38;;;;;;;3.72;2.33;;;15.60;99.90;;;;;;4999085;28;20030;-67
2023/08/29 04:18:04;;;;;;;4.45;2.15;;;15.60;99.90;;;;;;4999954;28;20075;-67
2023/08/29 04:20:30;;;;;;;4.07;2.40;;;15.60;99.90;;;;;;4999030;28;20022;-67
2023/08/29 04:22:57;;;;;;;4.07;2.22;;;15.60;99.90;;;;;;4999824;28;20029;-67
2023/08/29 04:25:26;;;;;;;2.75;2.33;;;15.60;99.90;;;;;;4998970;28;20026;-68
2023/08/29 04:27:52;;;;;;;3.75;2.25;;;15.60;99.90;;;;;;4998857;28;20030;-67
2023/08/29 04:30:18;;;;;;;2.78;1.75;;;15.60;99.90;;;;;;4998960;28;20032;-67
2023/08/29 04:32:44;;;;;;;2.63;1.70;;;15.60;99.90;;;;;;4999779;28;20109;-67
2023/08/29 04:35:10;;;;;;;2.97;1.75;;;15.60;99.90;;;;;;4999559;28;20022;-67
2023/08/29 04:37:36;;;;;;;2.85;1.70;;;15.60;99.90;;;;;;4998771;28;20065;-67
2023/08/29 04:40:10;;;;;;;2.55;1.88;;;15.60;99.90;;;;;;4998566;28;20023;-67
2023/08/29 04:42:37;;;;;;;4.85;2.00;;;15.50;99.90;;;;;;4999837;28;20023;-67
2023/08/29 04:45:04;;;;;;;6.63;1.90;;;15.60;99.90;;;;;;4998397;28;20053;-67
2023/08/29 04:47:30;;;;;;;3.22;2.00;;;15.60;99.90;;;;;;4997596;28;20029;-67
2023/08/29 04:49:56;;;;;;;2.35;2.15;;;15.60;99.90;;;;;;4999227;28;20026;-68
2023/08/29 04:52:21;;;;;;;5.10;2.15;;;15.60;99.90;;;;;;4999541;28;20123;-67
2023/08/29 04:54:47;;;;;;;3.15;1.92;;;15.60;99.90;;;;;;4998553;28;20022;-67
2023/08/29 04:57:13;;;;;;;4.05;1.80;;;15.60;99.90;;;;;;4999463;28;20027;-67
2023/08/29 04:59:38;;;;;;;3.65;1.85;;;15.60;99.90;;;;;;4998705;28;20109;-67
2023/08/29 05:02:04;;;;;;;4.95;2.20;;;15.50;99.90;;;;;;4999033;28;20026;-67
2023/08/29 05:04:29;;;;;;;3.13;2.20;;;15.50;99.90;;;;;;4998457;28;20026;-67
2023/08/29 05:06:55;;;;;;;6.18;2.83;;;15.60;99.90;;;;;;4998490;28;20023;-67
2023/08/29 05:09:21;;;;;;;6.00;2.20;;;15.70;99.90;;;;;;4999073;28;20021;-67
2023/08/29 05:11:46;;;;;;;2.50;2.20;;;15.80;99.90;;;;;;4997966;28;20019;-67
2023/08/29 05:14:12;;;;;;;4.85;1.90;;;15.90;99.90;;;;;;4998269;28;20053;-67
2023/08/29 05:16:37;;;;;;;6.70;2.45;;;15.90;99.90;;;;;;4998029;28;20033;-67
2023/08/29 05:19:04;;;;;;;2.63;2.38;;;16.00;99.90;;;;;;4997923;28;20033;-67
2023/08/29 05:21:30;;;;;;;5.85;2.20;;;15.90;99.90;;;;;;4998118;28;20084;-67
2023/08/29 05:23:57;;;;;;;3.38;2.42;;;15.90;99.90;;;;;;4998898;28;20022;-67
2023/08/29 05:26:23;;;;;;;5.60;2.20;;;15.80;99.90;;;;;;4997911;28;20022;-67
2023/08/29 05:28:48;;;;;;;3.30;2.60;;;15.70;99.90;;;;;;4999206;28;20129;-67
2023/08/29 05:31:14;;;;;;;3.53;2.42;;;15.60;99.90;;;;;;4998524;28;20080;-68
2023/08/29 05:33:39;;;;;;;4.80;2.42;;;15.50;99.90;;;;;;4998801;28;20072;-67
2023/08/29 05:36:05;;;;;;;3.78;2.60;;;15.50;99.90;;;;;;4998592;28;20080;-67
2023/08/29 05:38:30;;;;;;;4.75;2.38;;;15.50;99.90;;;;;;4998393;28;20027;-67
2023/08/29 05:40:56;;;;;;;9.75;2.90;;;15.50;99.90;;;;;;4997462;28;20022;-67
2023/08/29 05:43:21;;;;;;;4.63;2.80;;;15.60;99.90;;;;;;4997912;28;20041;-67
2023/08/29 05:45:47;;;;;;;7.60;3.35;;;15.60;99.90;;;;;;4998109;28;20023;-67
2023/08/29 05:48:13;;;;;;;4.50;3.13;;;15.60;99.90;;;;;;4997496;28;20026;-67
2023/08/29 05:50:42;;;;;;;5.03;2.70;;;15.60;99.90;;;;;;4998161;28;20034;-67
2023/08/29 05:53:07;;;;;;;4.75;2.72;;;15.70;99.90;;;;;;4998544;28;20033;-68
2023/08/29 05:55:34;;;;;;;3.47;3.00;;;15.70;99.90;;;;;;4998202;28;20023;-67
2023/08/29 05:57:59;;;;;;;5.05;2.88;;;15.70;99.90;;;;;;4998406;28;20030;-68
2023/08/29 06:00:25;;;;;;;7.45;2.50;;;15.60;99.90;;;;;;5014548;28;20117;-67
2023/08/29 06:02:52;;;;;;;3.95;2.55;;;15.60;99.90;;;;;;5016843;28;20068;-68
2023/08/29 06:05:18;;;;;;;4.05;2.58;;;15.50;99.90;;;;;;5017346;28;20131;-68
2023/08/29 06:07:44;;;;;;;5.97;2.80;;;15.50;99.90;;;;;;5017643;28;20041;-67
2023/08/29 06:10:09;;;;;;;8.18;2.78;;;15.50;99.90;;;;;;5017441;28;20026;-67
2023/08/29 06:12:35;;;;;;;3.97;2.40;;;15.60;99.90;;;;;;5016784;28;20037;-68
2023/08/29 06:15:01;;;;;;;9.15;3.20;;;15.60;99.90;;;;;;5017281;28;20022;-68
2023/08/29 06:17:26;;;;;;;3.55;2.72;;;15.60;99.90;;;;;;5016795;28;20033;-68
2023/08/29 06:19:52;;;;;;;4.43;2.92;;;15.60;99.90;;;;;;5016598;28;20053;-68
2023/08/29 06:22:17;;;;;;;6.57;3.03;;;15.60;99.90;;;;;;5016483;28;20026;-68
2023/08/29 06:24:43;;;;;;;5.30;2.50;;;15.60;99.90;;;;;;5016384;28;20018;-68
2023/08/29 06:27:09;;;;;;;6.00;2.42;;;15.60;99.90;;;;;;5016513;28;20033;-68
2023/08/29 06:29:34;;;;;;;6.53;2.65;;;15.60;99.90;;;;;;5016407;28;20028;-68
2023/08/29 06:32:00;;;;;;;5.15;2.47;;;15.80;99.90;;;;;;5016706;28;20018;-68
2023/08/29 06:34:25;;;;;;;6.18;2.03;;;15.90;99.90;;;;;;5016348;28;20072;-68
2023/08/29 06:36:51;;;;;;;3.50;2.58;;;15.90;99.90;;;;;;5016703;28;20026;-67
2023/08/29 06:39:17;;;;;;;4.40;2.08;;;16.10;99.90;;;;;;5016394;28;20030;-69
2023/08/29 06:41:43;;;;;;;3.00;2.50;;;16.10;99.90;;;;;;5016174;28;20041;-69
2023/08/29 06:44:09;;;;;;;4.75;2.42;;;16.20;99.90;;;;;;5017256;28;20143;-68
2023/08/29 06:46:34;;;;;;;5.60;2.50;;;16.00;99.90;;;;;;5016221;28;20158;-67
2023/08/29 06:49:00;;;;;;;3.90;2.40;;;15.80;99.90;;;;;;5016326;28;20075;-69
2023/08/29 06:51:25;;;;;;;4.18;2.80;;;15.70;99.90;;;;;;5017322;28;20034;-68
2023/08/29 06:53:51;;;;;;;5.63;2.97;;;15.70;99.90;;;;;;5016216;28;20021;-68
2023/08/29 06:56:18;;;;;;;3.38;2.70;;;15.60;99.90;;;;;;5016508;28;20022;-67
2023/08/29 06:58:44;;;;;;;6.65;2.80;;;15.60;99.90;;;;;;5017047;28;20022;-67
2023/08/29 07:01:09;;;;;;;5.13;2.60;;;15.70;99.90;;;;;;5017168;28;20022;-67
2023/08/29 07:03:35;;;;;;;4.05;2.28;;;15.80;99.90;;;;;;5016108;28;20018;-67
2023/08/29 07:06:00;;;;;;;3.05;2.03;;;15.90;99.90;;;;;;5017324;28;20025;-68
2023/08/29 07:08:26;;;;;;;4.75;1.95;;;15.90;99.90;;;;;;5016525;28;20069;-67
2023/08/29 07:10:52;;;;;;;3.33;2.25;;;16.00;99.90;;;;;;5016605;28;20037;-67
2023/08/29 07:13:17;;;;;;;3.83;2.20;;;16.10;99.90;;;;;;5021130;28;20022;-67
2023/08/29 07:15:43;;;;;;;2.97;1.80;;;16.20;99.90;;;;;;5019826;28;20029;-67
2023/08/29 07:18:09;;;;;;;2.13;1.90;;;16.40;99.90;;;;;;5020136;28;20033;-67
2023/08/29 07:20:34;;;;;;;3.92;2.00;;;16.40;99.90;;;;;;5019951;28;20075;-67
2023/08/29 07:23:00;;;;;;;3.65;2.05;;;16.40;99.90;;;;;;5020516;28;20100;-67
2023/08/29 07:25:40;;;;;;;4.47;1.60;;;16.50;99.90;;;;;;5019764;28;20030;-67
2023/08/29 07:28:11;;;;;;;4.80;1.85;;;16.60;99.90;;;;;;5019608;28;20022;-67
2023/08/29 07:30:50;;;;;;;2.05;1.55;;;16.80;99.90;;;;;;5020499;28;20075;-67
2023/08/29 07:33:17;;;;;;;2.25;1.38;;;16.90;99.90;;;;;;5019390;28;20041;-67
2023/08/29 07:35:43;;;;;;;2.65;1.38;;;16.90;99.90;;;;;;5019608;28;20036;-67
2023/08/29 07:38:09;;;;;;;4.00;1.90;;;17.00;99.90;;;;;;5019845;28;20033;-67
2023/08/29 07:40:35;;;;;;;3.38;1.48;;;17.10;99.90;;;;;;5019279;28;20053;-67
2023/08/29 07:43:05;;;;;;;2.25;1.60;;;17.10;99.90;;;;;;5019323;28;20080;-67
2023/08/29 07:45:32;;;;;;;2.00;1.33;;;17.20;99.90;;;;;;5019490;28;20026;-67
2023/08/29 07:47:58;;;;;;;4.63;1.38;;;17.30;99.90;;;;;;5019263;28;20022;-67
2023/08/29 07:50:24;;;;;;;5.57;1.70;;;17.40;99.90;;;;;;5020127;28;20032;-67
2023/08/29 07:52:50;;;;;;;4.13;1.90;;;17.40;99.90;;;;;;5019204;28;20022;-67
2023/08/29 07:55:15;;;;;;;3.03;1.50;;;17.50;99.90;;;;;;5019938;28;20030;-68
2023/08/29 07:57:41;;;;;;;3.58;1.92;;;17.50;99.90;;;;;;5019277;28;20021;-68
2023/08/29 08:00:09;;;;;;;4.28;1.50;;;17.60;99.90;;;;;;5018903;28;20022;-67
2023/08/29 08:02:38;;;;;;;2.25;1.60;;;17.50;99.90;;;;;;5019001;28;20045;-67
2023/08/29 08:05:05;;;;;;;4.30;1.50;;;17.50;99.90;;;;;;5019917;28;20101;-67
2023/08/29 08:07:31;;;;;;;7.65;2.25;;;17.50;99.90;;;;;;5018938;28;20116;-67
2023/08/29 08:09:56;;;;;;;6.38;1.48;;;17.60;99.90;;;;;;5019118;28;20064;-67
2023/08/29 08:12:22;;;;;;;2.28;1.50;;;17.60;99.90;;;;;;5019201;28;20025;-67
2023/08/29 08:14:47;;;;;;;4.55;1.55;;;17.80;99.90;;;;;;5018744;28;20184;-67
2023/08/29 08:17:13;;;;;;;2.13;1.33;;;17.90;99.90;;;;;;5018704;28;20116;-67
2023/08/29 08:19:38;;;;;;;3.70;1.50;;;17.90;99.90;;;;;;5019826;28;20083;-67
2023/08/29 08:22:04;;;;;;;16.02;2.28;;;17.90;99.90;;;;;;5018680;28;20080;-67
2023/08/29 08:24:29;;;;;;;6.72;1.50;;;18.10;99.90;;;;;;5018542;28;20022;-68
2023/08/29 08:26:55;;;;;;;5.05;1.50;;;18.20;99.90;;;;;;5019430;28;20045;-68
2023/08/29 08:29:20;;;;;;;2.10;1.23;;;18.20;99.90;;;;;;5018909;28;20101;-68
2023/08/29 08:31:46;;;;;;;2.92;1.38;;;18.10;99.90;;;;;;5018382;28;20068;-68
2023/08/29 08:34:12;;;;;;;3.50;1.50;;;18.20;99.90;;;;;;5018455;28;20079;-68
2023/08/29 08:36:38;;;;;;;3.05;1.75;;;18.20;99.90;;;;;;5018327;28;20037;-68
2023/08/29 08:39:04;;;;;;;3.22;1.42;;;18.20;99.90;;;;;;5018188;28;20076;-68
2023/08/29 08:41:32;;;;;;;5.70;1.63;;;18.30;99.90;;;;;;5018380;28;20076;-68
2023/08/29 08:44:03;;;;;;;3.67;1.20;;;18.40;99.90;;;;;;5018185;28;20125;-67
2023/08/29 08:46:28;;;;;;;2.33;1.67;;;18.40;99.90;;;;;;5018211;28;20033;-67
2023/08/29 08:48:54;;;;;;;3.38;1.27;;;18.40;99.90;;;;;;5019056;28;20026;-68
2023/08/29 08:51:22;;;;;;;2.45;1.27;;;18.50;99.90;;;;;;5018408;28;20033;-67
2023/08/29 08:53:49;;;;;;;1.00;0.82;;;18.60;99.90;;;;;;5018084;28;20022;-66
2023/08/29 08:56:15;;;;;;;1.85;1.38;;;18.60;99.90;;;;;;5017951;28;20022;-66
2023/08/29 08:58:40;;;;;;;4.90;1.10;;;18.60;99.90;;;;;;5017876;28;20037;-66
2023/08/29 09:01:06;;;;;;;3.58;1.35;;;18.60;99.90;;;;;;5018543;28;20049;-67
2023/08/29 09:03:31;;;;;;;4.65;1.50;;;18.60;99.90;;;;;;5008851;28;20026;-67
2023/08/29 09:05:57;;;;;;;4.05;1.38;;;18.70;99.90;;;;;;4988837;28;20097;-66
2023/08/29 09:08:23;;;;;;;2.17;1.35;;;18.80;99.90;;;;;;4983656;28;20076;-67
2023/08/29 09:10:52;;;;;;;4.97;2.28;;;18.80;99.90;;;;;;4986767;28;20054;-67
2023/08/29 09:13:19;;;;;;;2.85;1.00;;;18.60;99.90;;;;;;4983910;28;20023;-67
2023/08/29 09:15:48;;;;;;;4.22;1.20;;;18.70;99.90;;;;;;4979356;28;20036;-67
2023/08/29 09:18:24;;;;;;;2.72;1.00;;;18.80;99.90;;;;;;4979622;28;20022;-67
2023/08/29 09:20:52;;;;;;;3.33;1.30;;;18.90;99.90;;;;;;4979288;28;20063;-67
2023/08/29 09:23:22;;;;;;;1.70;1.00;;;19.00;99.90;;;;;;4978505;28;20050;-67
2023/08/29 09:25:56;;;;;;;1.00;0.85;;;19.10;99.90;;;;;;4978647;28;20027;-67
2023/08/29 09:28:27;;;;;;;3.53;1.63;;;19.20;99.90;;;;;;4979278;28;20019;-67
2023/08/29 09:30:53;;;;;;;;;;;19.30;99.90;;;;;;4979587;28;20026;-67
2023/08/29 09:33:23;;;;;;;1.52;1.00;;;19.20;99.90;;;;;;4978688;28;19906;-67
2023/08/29 09:35:49;;;;;;;1.70;1.02;;;19.10;99.90;;;;;;4979007;28;20078;-67
2023/08/29 09:38:17;;;;;;;2.40;1.17;;;19.10;99.90;;;;;;4978293;28;20185;-67
2023/08/29 09:40:51;;;;;;;2.78;1.10;;;19.20;99.90;;;;;;4979053;28;20031;-67
2023/08/29 09:43:17;;;;;;;2.08;1.10;;;19.20;99.90;;;;;;4978869;28;20034;-67
2023/08/29 09:45:50;;;;;;;2.15;1.30;;;19.30;99.90;;;;;;4978855;28;20034;-67
2023/08/29 09:48:15;;;;;;;3.17;1.00;;;19.30;99.90;;;;;;4978104;28;20023;-67
2023/08/29 09:50:41;;;;;;;2.97;1.48;;;19.40;99.90;;;;;;4978800;28;20031;-67
2023/08/29 09:53:08;;;;;;;2.72;1.45;;;19.50;99.90;;;;;;4978297;28;20070;-67
2023/08/29 09:55:41;;;;;;;4.65;1.75;;;19.60;99.90;;;;;;4985163;28;20029;-67
2023/08/29 09:58:08;;;;;;;1.00;0.70;;;19.70;99.90;;;;;;4986592;28;20106;-67
2023/08/29 10:00:38;;;;;;;1.65;1.13;;;19.70;99.90;;;;;;4986918;28;20022;-67
2023/08/29 10:03:08;;;;;;;1.35;0.95;;;19.70;99.90;;;;;;4987635;28;20126;-67
2023/08/29 10:05:36;;;;;;;1.00;0.60;;;19.70;99.90;;;;;;4984275;28;20044;-67
2023/08/29 10:08:12;;;;;;;2.22;0.88;;;19.80;99.90;;;;;;4978163;28;20182;-67
2023/08/29 10:10:44;;;;;;;1.33;0.65;;;19.70;99.90;;;;;;4981455;28;20014;-67
2023/08/29 10:13:10;;;;;;;1.60;0.80;;;19.90;99.90;;;;;;4985112;28;20026;-67
2023/08/29 10:15:39;;;;;;;2.65;0.90;;;19.90;99.90;;;;;;4987573;28;20033;-67
2023/08/29 10:18:06;;;;;;;1.38;0.70;;;19.90;99.90;;;;;;4986828;28;20029;-67
2023/08/29 10:20:32;;;;;;;3.88;1.23;;;19.90;99.90;;;;;;4985888;28;20117;-67
2023/08/29 10:23:00;;;;;;;2.35;0.90;;;20.00;99.90;;;;;;4986361;28;20027;-67
2023/08/29 10:25:28;;;;;;;1.98;0.98;;;20.10;99.90;;;;;;4986695;28;20022;-67
2023/08/29 10:27:54;;;;;;;2.35;0.70;;;20.20;99.90;;;;;;4985411;28;20030;-67
2023/08/29 10:30:23;;;;;;;2.47;0.80;;;20.30;99.90;;;;;;4978165;28;20070;-69
2023/08/29 10:32:49;;;;;;;1.30;0.60;;;20.30;99.90;;;;;;4977436;28;20023;-68
2023/08/29 10:35:19;;;;;;;1.25;0.98;;;20.30;99.90;;;;;;4977676;28;20118;-69
2023/08/29 10:38:28;;;;;;;0.90;0.70;;;20.30;99.90;;;;;;4977307;28;20030;-68
2023/08/29 10:41:06;;;;;;;3.58;0.70;;;20.10;99.90;;;;;;4978289;28;20027;-68
2023/08/29 10:43:32;;;;;;;2.50;1.08;;;20.10;99.90;;;;;;4978183;28;20026;-69
2023/08/29 10:46:12;;;;;;;3.83;0.63;;;20.10;99.90;;;;;;4979080;28;20037;-68
2023/08/29 10:48:46;;;;;;;1.90;0.80;;;20.00;99.90;;;;;;4981288;28;20019;-68
2023/08/29 10:51:14;;;;;;;2.65;1.08;;;20.00;99.90;;;;;;4982117;28;20030;-68
2023/08/29 10:54:06;;;;;;;1.45;0.68;;;20.00;99.90;;;;;;4981146;28;20029;-68
2023/08/29 10:56:42;;;;;;;3.03;0.68;;;20.00;99.90;;;;;;4981247;28;20023;-68
2023/08/29 10:59:28;;;;;;;1.85;0.65;;;20.00;99.90;;;;;;4981246;28;20027;-68
2023/08/29 11:02:26;;;;;;;3.05;1.17;;;20.00;99.90;;;;;;4980973;28;20034;-68
2023/08/29 11:05:08;;;;;;;2.65;0.70;;;19.90;99.90;;;;;;4980946;28;20086;-67
2023/08/29 11:07:37;;;;;;;0.82;0.57;;;19.80;99.90;;;;;;4981887;28;20027;-68
2023/08/29 11:10:15;;;;;;;2.25;0.63;;;19.70;99.90;;;;;;4980821;28;20031;-67
2023/08/29 11:13:06;;;;;;;1.95;0.60;;;19.70;99.90;;;;;;4980828;28;20026;-67
2023/08/29 11:15:49;;;;;;;2.85;0.60;;;19.60;99.90;;;;;;4981809;28;20037;-67
2023/08/29 11:18:26;;;;;;;2.03;0.75;;;19.70;99.90;;;;;;4981551;28;20109;-67
2023/08/29 11:20:53;;;;;;;1.50;0.60;;;19.80;99.90;;;;;;4980977;28;20026;-67
2023/08/29 11:23:21;;;;;;;0.77;0.77;;;19.70;99.90;;;;;;4980739;28;20023;-67
2023/08/29 11:25:50;;;;;;;4.00;0.85;;;19.60;99.90;;;;;;4980973;28;20027;-67
2023/08/29 11:28:16;;;;;;;1.92;0.93;;;19.70;99.90;;;;;;4980804;28;20118;-68
2023/08/29 11:30:45;;;;;;;3.08;1.05;;;19.70;99.90;;;;;;4980040;28;20059;-68
2023/08/29 11:33:11;;;;;;;15.70;1.95;;;19.80;99.90;;;;;;4981376;28;20022;-68
2023/08/29 11:35:37;;;;;;;3.72;1.00;;;19.80;99.90;;;;;;4981298;28;20027;-68
2023/08/29 11:38:04;;;;;;;3.92;1.30;;;19.90;99.90;;;;;;4980773;28;20022;-68
2023/08/29 11:40:30;;;;;;;2.80;0.85;;;19.90;99.90;;;;;;4981136;28;20019;-68
2023/08/29 11:42:57;;;;;;;3.33;0.93;;;20.00;99.90;;;;;;4980367;28;20042;-68
2023/08/29 11:45:23;;;;;;;3.45;0.85;;;20.10;99.90;;;;;;4980545;28;20025;-68
2023/08/29 11:47:49;;;;;;;6.70;1.75;;;20.00;99.90;;;;;;4981201;28;20026;-68
2023/08/29 11:50:16;;;;;;;1.42;1.00;;;19.90;99.90;;;;;;4981169;28;20042;-68
2023/08/29 11:52:41;;;;;;;2.22;0.80;;;19.90;99.90;;;;;;4984620;28;20028;-68
2023/08/29 11:55:10;;;;;;;3.92;1.27;;;20.00;99.90;;;;;;4988899;28;20022;-68
2023/08/29 11:57:38;;;;;;;4.93;1.00;;;20.10;99.90;;;;;;4989045;28;20022;-68
2023/08/29 12:00:09;;;;;;;2.45;1.25;;;20.00;99.90;;;;;;4988454;28;20031;-68
2023/08/29 12:02:34;;;;;;;1.58;0.88;;;20.10;99.90;;;;;;4989995;28;20023;-68
2023/08/29 12:05:00;;;;;;;4.13;1.20;;;20.10;99.90;;;;;;4988496;28;20029;-68
2023/08/29 12:07:33;;;;;;;3.47;1.08;;;20.10;99.90;;;;;;4990174;28;20026;-68
2023/08/29 12:10:10;;;;;;;2.88;0.95;;;20.10;99.90;;;;;;4987323;28;20019;-68
2023/08/29 12:12:37;;;;;;;3.65;1.33;;;20.10;99.90;;;;;;4982386;28;20038;-67
2023/08/29 12:15:10;;;;;;;1.73;0.85;;;20.20;99.90;;;;;;4979766;28;20037;-68
2023/08/29 12:17:38;;;;;;;1.02;0.95;;;20.10;99.90;;;;;;4980686;28;20033;-68
2023/08/29 12:20:29;;;;;;;1.42;1.10;;;20.10;99.90;;;;;;4979658;28;20031;-68
2023/08/29 12:22:55;;;;;;;2.25;1.00;;;20.10;99.90;;;;;;4980420;28;20030;-68
2023/08/29 12:25:21;;;;;;;2.15;1.00;;;20.10;99.90;;;;;;4980428;28;20069;-68
2023/08/29 12:27:47;;;;;;;2.45;0.80;;;20.20;99.90;;;;;;4979441;28;20027;-68
2023/08/29 12:30:14;;;;;;;3.53;0.80;;;20.20;99.90;;;;;;4979391;28;20027;-67
2023/08/29 12:32:42;;;;;;;1.45;0.90;;;20.20;99.90;;;;;;4980567;28;20035;-67
2023/08/29 12:35:08;;;;;;;1.35;0.70;;;20.30;99.90;;;;;;4979388;28;20026;-67
2023/08/29 12:37:34;;;;;;;1.95;0.68;;;20.40;99.90;;;;;;4980163;28;20027;-66
2023/08/29 12:40:04;;;;;;;2.40;1.23;;;20.50;99.90;;;;;;4990622;28;20037;-67
2023/08/29 12:42:30;;;;;;;1.30;0.98;;;20.70;99.90;;;;;;4989098;28;20023;-66
2023/08/29 12:44:55;;;;;;;1.45;0.85;;;20.70;99.90;;;;;;4987601;28;20109;-66
2023/08/29 12:47:21;;;;;;;3.85;0.90;;;20.70;99.90;;;;;;4987589;28;20119;-66
2023/08/29 12:49:46;;;;;;;1.00;0.75;;;20.70;99.90;;;;;;4990790;28;20061;-66